PWSweather.com
Personal Weather Stations
Station Observations
EDGELEY
Edgeley, Nd, Edgeley, ND 58433

Edgeley, NdEdgeley, ND 58433

Lat: 46.3599246, Lon: -98.7144392

Elevation: 1575

Station Type: Davis/Vantage Pro

www.edgeleyweather.com

High Low Average
Temperature 8.4°F-13.1°C -11.5°F-24.2°C -2.9°F-19.4°C
Dew Point 0.5°F-17.5°C -16.7°F-27.1°C -8.3°F-22.4°C
Winds 22.0 mph 35.4 kmh 1.0 mph 1.6 kmh 6.0 mph N9.7 kmh N
Wind Gusts 28.0 mph45.1 kmh 2.0 mph3.2 kmh 10.0 mph16.1 kmh
Humidity 84% 67% 77%
Pressure 30.71 in1040.0 mb 30.06 in1017.9 mb -
Precipitation 0.00 in0.0 mm - -
Hour Temp Dew Point Humidity Winds Wind Gusts Pressure Precip Precip Rate Daily Precip Total
12:00 AM -8.7°F-22.6°C -13.7°F-25.4°C 78% 10.0 mph N16.1 kmh N 12.0 mph19.3 kmh 30.66 in1038.3 mb 0.00 in0.0 mm 0.00 in0.0 mm 0.00 in0.0 mm
12:05 AM -8.7°F-22.6°C -13.7°F-25.4°C 78% 7.0 mph N11.3 kmh N 13.0 mph20.9 kmh 30.66 in1038.3 mb 0.00 in0.0 mm 0.00 in0.0 mm 0.00 in0.0 mm
12:10 AM -8.8°F-22.7°C -14.1°F-25.6°C 77% 6.0 mph N9.7 kmh N 13.0 mph20.9 kmh 30.66 in1038.3 mb 0.00 in0.0 mm 0.00 in0.0 mm 0.00 in0.0 mm
12:15 AM -8.8°F-22.7°C -13.8°F-25.4°C 78% 6.0 mph N9.7 kmh N 8.0 mph12.9 kmh 30.67 in1038.6 mb 0.00 in0.0 mm 0.00 in0.0 mm 0.00 in0.0 mm
12:20 AM -8.9°F-22.7°C -13.9°F-25.5°C 78% 7.0 mph N11.3 kmh N 10.0 mph16.1 kmh 30.67 in1038.6 mb 0.00 in0.0 mm 0.00 in0.0 mm 0.00 in0.0 mm
12:25 AM -9.0°F-22.8°C -14.2°F-25.7°C 77% 8.0 mph N12.9 kmh N 11.0 mph17.7 kmh 30.67 in1038.6 mb 0.00 in0.0 mm 0.00 in0.0 mm 0.00 in0.0 mm
12:30 AM -9.1°F-22.8°C -14.3°F-25.7°C 77% 7.0 mph N11.3 kmh N 8.0 mph12.9 kmh 30.67 in1038.6 mb 0.00 in0.0 mm 0.00 in0.0 mm 0.00 in0.0 mm
12:35 AM -9.1°F-22.8°C -14.3°F-25.7°C 77% 7.0 mph N11.3 kmh N 11.0 mph17.7 kmh 30.67 in1038.6 mb 0.00 in0.0 mm 0.00 in0.0 mm 0.00 in0.0 mm
12:40 AM -9.3°F-22.9°C -14.5°F-25.8°C 77% 9.0 mph N14.5 kmh N 14.0 mph22.5 kmh 30.67 in1038.6 mb 0.00 in0.0 mm 0.00 in0.0 mm 0.00 in0.0 mm
12:45 AM -9.4°F-23.0°C -14.6°F-25.9°C 77% 5.0 mph N8.0 kmh N 8.0 mph12.9 kmh 30.66 in1038.3 mb 0.00 in0.0 mm 0.00 in0.0 mm 0.00 in0.0 mm
12:50 AM -9.5°F-23.1°C -14.7°F-25.9°C 77% 5.0 mph N8.0 kmh N 12.0 mph19.3 kmh 30.66 in1038.3 mb 0.00 in0.0 mm 0.00 in0.0 mm 0.00 in0.0 mm
12:55 AM -9.6°F-23.1°C -14.8°F-26.0°C 77% 4.0 mph N6.4 kmh N 12.0 mph19.3 kmh 30.66 in1038.3 mb 0.00 in0.0 mm 0.00 in0.0 mm 0.00 in0.0 mm
01:00 AM -9.7°F-23.2°C -14.9°F-26.1°C 77% 4.0 mph N6.4 kmh N 6.0 mph9.7 kmh 30.66 in1038.3 mb 0.00 in0.0 mm 0.00 in0.0 mm 0.00 in0.0 mm
01:05 AM -9.7°F-23.2°C -14.7°F-25.9°C 78% 6.0 mph N9.7 kmh N 11.0 mph17.7 kmh 30.65 in1037.9 mb 0.00 in0.0 mm 0.00 in0.0 mm 0.00 in0.0 mm
01:10 AM -9.7°F-23.2°C -14.9°F-26.1°C 77% 8.0 mph N12.9 kmh N 11.0 mph17.7 kmh 30.66 in1038.3 mb 0.00 in0.0 mm 0.00 in0.0 mm 0.00 in0.0 mm
01:15 AM -9.8°F-23.2°C -15.0°F-26.1°C 77% 6.0 mph N9.7 kmh N 6.0 mph9.7 kmh 30.66 in1038.3 mb 0.00 in0.0 mm 0.00 in0.0 mm 0.00 in0.0 mm
01:20 AM -9.8°F-23.2°C -14.8°F-26.0°C 78% 4.0 mph N6.4 kmh N 9.0 mph14.5 kmh 30.66 in1038.3 mb 0.00 in0.0 mm 0.00 in0.0 mm 0.00 in0.0 mm
01:25 AM -9.8°F-23.2°C -14.8°F-26.0°C 78% 4.0 mph N6.4 kmh N 10.0 mph16.1 kmh 30.66 in1038.3 mb 0.00 in0.0 mm 0.00 in0.0 mm 0.00 in0.0 mm
01:30 AM -9.7°F-23.2°C -14.7°F-25.9°C 78% 8.0 mph N12.9 kmh N 9.0 mph14.5 kmh 30.66 in1038.3 mb 0.00 in0.0 mm 0.00 in0.0 mm 0.00 in0.0 mm
01:35 AM -9.5°F-23.1°C -14.5°F-25.8°C 78% 4.0 mph N6.4 kmh N 11.0 mph17.7 kmh 30.66 in1038.3 mb 0.00 in0.0 mm 0.00 in0.0 mm 0.00 in0.0 mm
01:40 AM -9.3°F-22.9°C -14.3°F-25.7°C 78% 4.0 mph N6.4 kmh N 11.0 mph17.7 kmh 30.66 in1038.3 mb 0.00 in0.0 mm 0.00 in0.0 mm 0.00 in0.0 mm
01:45 AM -9.1°F-22.8°C -14.1°F-25.6°C 78% 7.0 mph N11.3 kmh N 7.0 mph11.3 kmh 30.66 in1038.3 mb 0.00 in0.0 mm 0.00 in0.0 mm 0.00 in0.0 mm
01:50 AM -8.9°F-22.7°C -13.9°F-25.5°C 78% 6.0 mph N9.7 kmh N 10.0 mph16.1 kmh 30.66 in1038.3 mb 0.00 in0.0 mm 0.00 in0.0 mm 0.00 in0.0 mm
01:55 AM -8.6°F-22.6°C -13.6°F-25.3°C 78% 6.0 mph N9.7 kmh N 10.0 mph16.1 kmh 30.66 in1038.3 mb 0.00 in0.0 mm 0.00 in0.0 mm 0.00 in0.0 mm
02:00 AM -8.4°F-22.4°C -13.4°F-25.2°C 78% 4.0 mph N6.4 kmh N 6.0 mph9.7 kmh 30.67 in1038.6 mb 0.00 in0.0 mm 0.00 in0.0 mm 0.00 in0.0 mm
02:05 AM -8.2°F-22.3°C -13.5°F-25.3°C 77% 4.0 mph N6.4 kmh N 11.0 mph17.7 kmh 30.67 in1038.6 mb 0.00 in0.0 mm 0.00 in0.0 mm 0.00 in0.0 mm
02:10 AM -8.0°F-22.2°C -13.3°F-25.2°C 77% 11.0 mph N17.7 kmh N 14.0 mph22.5 kmh 30.67 in1038.6 mb 0.00 in0.0 mm 0.00 in0.0 mm 0.00 in0.0 mm
02:15 AM -7.9°F-22.2°C -13.2°F-25.1°C 77% 7.0 mph N11.3 kmh N 8.0 mph12.9 kmh 30.67 in1038.6 mb 0.00 in0.0 mm 0.00 in0.0 mm 0.00 in0.0 mm
02:20 AM -7.6°F-22.0°C -12.9°F-24.9°C 77% 4.0 mph N6.4 kmh N 15.0 mph24.1 kmh 30.67 in1038.6 mb 0.00 in0.0 mm 0.00 in0.0 mm 0.00 in0.0 mm
02:25 AM -7.4°F-21.9°C -12.7°F-24.8°C 77% 4.0 mph N6.4 kmh N 15.0 mph24.1 kmh 30.68 in1038.9 mb 0.00 in0.0 mm 0.00 in0.0 mm 0.00 in0.0 mm
02:30 AM -7.2°F-21.8°C -12.5°F-24.7°C 77% 5.0 mph N8.0 kmh N 7.0 mph11.3 kmh 30.68 in1038.9 mb 0.00 in0.0 mm 0.00 in0.0 mm 0.00 in0.0 mm
02:35 AM -7.1°F-21.7°C -12.7°F-24.8°C 76% 5.0 mph N8.0 kmh N 10.0 mph16.1 kmh 30.68 in1038.9 mb 0.00 in0.0 mm 0.00 in0.0 mm 0.00 in0.0 mm
02:40 AM -7.0°F-21.7°C -12.6°F-24.8°C 76% 5.0 mph N8.0 kmh N 10.0 mph16.1 kmh 30.68 in1038.9 mb 0.00 in0.0 mm 0.00 in0.0 mm 0.00 in0.0 mm
02:45 AM -6.8°F-21.6°C -12.4°F-24.7°C 76% 5.0 mph N8.0 kmh N 7.0 mph11.3 kmh 30.69 in1039.3 mb 0.00 in0.0 mm 0.00 in0.0 mm 0.00 in0.0 mm
02:50 AM -6.8°F-21.6°C -12.4°F-24.7°C 76% 4.0 mph N6.4 kmh N 9.0 mph14.5 kmh 30.69 in1039.3 mb 0.00 in0.0 mm 0.00 in0.0 mm 0.00 in0.0 mm
02:55 AM -6.8°F-21.6°C -12.4°F-24.7°C 76% 5.0 mph N8.0 kmh N 9.0 mph14.5 kmh 30.69 in1039.3 mb 0.00 in0.0 mm 0.00 in0.0 mm 0.00 in0.0 mm
03:00 AM -6.8°F-21.6°C -12.4°F-24.7°C 76% 4.0 mph N6.4 kmh N 8.0 mph12.9 kmh 30.68 in1038.9 mb 0.00 in0.0 mm 0.00 in0.0 mm 0.00 in0.0 mm
03:05 AM -6.8°F-21.6°C -12.6°F-24.8°C 75% 4.0 mph N6.4 kmh N 10.0 mph16.1 kmh 30.69 in1039.3 mb 0.00 in0.0 mm 0.00 in0.0 mm 0.00 in0.0 mm
03:10 AM -6.8°F-21.6°C -12.6°F-24.8°C 75% 4.0 mph N6.4 kmh N 10.0 mph16.1 kmh 30.69 in1039.3 mb 0.00 in0.0 mm 0.00 in0.0 mm 0.00 in0.0 mm
03:15 AM -6.8°F-21.6°C -12.6°F-24.8°C 75% 3.0 mph N4.8 kmh N 4.0 mph6.4 kmh 30.69 in1039.3 mb 0.00 in0.0 mm 0.00 in0.0 mm 0.00 in0.0 mm
03:20 AM -6.8°F-21.6°C -12.6°F-24.8°C 75% 4.0 mph N6.4 kmh N 7.0 mph11.3 kmh 30.70 in1039.6 mb 0.00 in0.0 mm 0.00 in0.0 mm 0.00 in0.0 mm
03:25 AM -7.0°F-21.7°C -12.8°F-24.9°C 75% 4.0 mph N6.4 kmh N 7.0 mph11.3 kmh 30.71 in1040.0 mb 0.00 in0.0 mm 0.00 in0.0 mm 0.00 in0.0 mm
03:30 AM -7.2°F-21.8°C -13.0°F-25.0°C 75% 5.0 mph N8.0 kmh N 8.0 mph12.9 kmh 30.71 in1040.0 mb 0.00 in0.0 mm 0.00 in0.0 mm 0.00 in0.0 mm
03:35 AM -7.5°F-21.9°C -13.3°F-25.2°C 75% 4.0 mph N6.4 kmh N 8.0 mph12.9 kmh 30.71 in1040.0 mb 0.00 in0.0 mm 0.00 in0.0 mm 0.00 in0.0 mm
03:40 AM -7.7°F-22.1°C -13.5°F-25.3°C 75% 3.0 mph N4.8 kmh N 8.0 mph12.9 kmh 30.70 in1039.6 mb 0.00 in0.0 mm 0.00 in0.0 mm 0.00 in0.0 mm
03:45 AM -8.1°F-22.3°C -13.9°F-25.5°C 75% 5.0 mph N8.0 kmh N 9.0 mph14.5 kmh 30.70 in1039.6 mb 0.00 in0.0 mm 0.00 in0.0 mm 0.00 in0.0 mm
03:50 AM -8.5°F-22.5°C -14.3°F-25.7°C 75% 7.0 mph N11.3 kmh N 10.0 mph16.1 kmh 30.71 in1040.0 mb 0.00 in0.0 mm 0.00 in0.0 mm 0.00 in0.0 mm
03:55 AM -8.8°F-22.7°C -14.6°F-25.9°C 75% 4.0 mph N6.4 kmh N 10.0 mph16.1 kmh 30.70 in1039.6 mb 0.00 in0.0 mm 0.00 in0.0 mm 0.00 in0.0 mm
04:00 AM -9.2°F-22.9°C -14.7°F-25.9°C 76% 8.0 mph N12.9 kmh N 8.0 mph12.9 kmh 30.71 in1040.0 mb 0.00 in0.0 mm 0.00 in0.0 mm 0.00 in0.0 mm
04:05 AM -9.5°F-23.1°C -15.0°F-26.1°C 76% 6.0 mph N9.7 kmh N 9.0 mph14.5 kmh 30.70 in1039.6 mb 0.00 in0.0 mm 0.00 in0.0 mm 0.00 in0.0 mm
04:10 AM -9.7°F-23.2°C -15.2°F-26.2°C 76% 4.0 mph N6.4 kmh N 9.0 mph14.5 kmh 30.70 in1039.6 mb 0.00 in0.0 mm 0.00 in0.0 mm 0.00 in0.0 mm
04:15 AM -9.9°F-23.3°C -15.4°F-26.3°C 76% 4.0 mph N6.4 kmh N 6.0 mph9.7 kmh 30.71 in1040.0 mb 0.00 in0.0 mm 0.00 in0.0 mm 0.00 in0.0 mm
04:20 AM -10.0°F-23.3°C -15.2°F-26.2°C 77% 4.0 mph N6.4 kmh N 6.0 mph9.7 kmh 30.71 in1040.0 mb 0.00 in0.0 mm 0.00 in0.0 mm 0.00 in0.0 mm
04:25 AM -10.0°F-23.3°C -15.2°F-26.2°C 77% 5.0 mph N8.0 kmh N 9.0 mph14.5 kmh 30.71 in1040.0 mb 0.00 in0.0 mm 0.00 in0.0 mm 0.00 in0.0 mm
04:30 AM -10.1°F-23.4°C -15.3°F-26.3°C 77% 4.0 mph N6.4 kmh N 6.0 mph9.7 kmh 30.71 in1040.0 mb 0.00 in0.0 mm 0.00 in0.0 mm 0.00 in0.0 mm
04:35 AM -10.2°F-23.4°C -15.4°F-26.3°C 77% 4.0 mph N6.4 kmh N 8.0 mph12.9 kmh 30.70 in1039.6 mb 0.00 in0.0 mm 0.00 in0.0 mm 0.00 in0.0 mm
04:40 AM -10.3°F-23.5°C -15.5°F-26.4°C 77% 9.0 mph N14.5 kmh N 9.0 mph14.5 kmh 30.70 in1039.6 mb 0.00 in0.0 mm 0.00 in0.0 mm 0.00 in0.0 mm
04:45 AM -10.3°F-23.5°C -15.5°F-26.4°C 77% 4.0 mph N6.4 kmh N 8.0 mph12.9 kmh 30.69 in1039.3 mb 0.00 in0.0 mm 0.00 in0.0 mm 0.00 in0.0 mm
04:50 AM -10.3°F-23.5°C -15.5°F-26.4°C 77% 5.0 mph N8.0 kmh N 8.0 mph12.9 kmh 30.69 in1039.3 mb 0.00 in0.0 mm 0.00 in0.0 mm 0.00 in0.0 mm
04:55 AM -10.3°F-23.5°C -15.5°F-26.4°C 77% 3.0 mph N4.8 kmh N 8.0 mph12.9 kmh 30.69 in1039.3 mb 0.00 in0.0 mm 0.00 in0.0 mm 0.00 in0.0 mm
05:00 AM -10.3°F-23.5°C -15.5°F-26.4°C 77% 2.0 mph N3.2 kmh N 2.0 mph3.2 kmh 30.68 in1038.9 mb 0.00 in0.0 mm 0.00 in0.0 mm 0.00 in0.0 mm
05:05 AM -10.3°F-23.5°C -15.5°F-26.4°C 77% 2.0 mph N3.2 kmh N 5.0 mph8.0 kmh 30.68 in1038.9 mb 0.00 in0.0 mm 0.00 in0.0 mm 0.00 in0.0 mm
05:10 AM -10.3°F-23.5°C -15.5°F-26.4°C 77% 3.0 mph N4.8 kmh N 6.0 mph9.7 kmh 30.68 in1038.9 mb 0.00 in0.0 mm 0.00 in0.0 mm 0.00 in0.0 mm
05:15 AM -10.4°F-23.6°C -15.6°F-26.4°C 77% 3.0 mph N4.8 kmh N 4.0 mph6.4 kmh 30.68 in1038.9 mb 0.00 in0.0 mm 0.00 in0.0 mm 0.00 in0.0 mm
05:20 AM -10.4°F-23.6°C -15.6°F-26.4°C 77% 2.0 mph N3.2 kmh N 7.0 mph11.3 kmh 30.67 in1038.6 mb 0.00 in0.0 mm 0.00 in0.0 mm 0.00 in0.0 mm
05:25 AM -10.4°F-23.6°C -15.6°F-26.4°C 77% 2.0 mph N3.2 kmh N 7.0 mph11.3 kmh 30.67 in1038.6 mb 0.00 in0.0 mm 0.00 in0.0 mm 0.00 in0.0 mm
05:30 AM -10.4°F-23.6°C -15.6°F-26.4°C 77% 3.0 mph N4.8 kmh N 4.0 mph6.4 kmh 30.67 in1038.6 mb 0.00 in0.0 mm 0.00 in0.0 mm 0.00 in0.0 mm
05:35 AM -10.4°F-23.6°C -15.6°F-26.4°C 77% 4.0 mph N6.4 kmh N 5.0 mph8.0 kmh 30.67 in1038.6 mb 0.00 in0.0 mm 0.00 in0.0 mm 0.00 in0.0 mm
05:40 AM -10.4°F-23.6°C -15.6°F-26.4°C 77% 3.0 mph N4.8 kmh N 5.0 mph8.0 kmh 30.66 in1038.3 mb 0.00 in0.0 mm 0.00 in0.0 mm 0.00 in0.0 mm
05:45 AM -10.4°F-23.6°C -15.6°F-26.4°C 77% 4.0 mph N6.4 kmh N 4.0 mph6.4 kmh 30.66 in1038.3 mb 0.00 in0.0 mm 0.00 in0.0 mm 0.00 in0.0 mm
05:50 AM -10.5°F-23.6°C -15.7°F-26.5°C 77% 3.0 mph N4.8 kmh N 4.0 mph6.4 kmh 30.66 in1038.3 mb 0.00 in0.0 mm 0.00 in0.0 mm 0.00 in0.0 mm
05:55 AM -10.6°F-23.7°C -15.8°F-26.6°C 77% 2.0 mph N3.2 kmh N 4.0 mph6.4 kmh 30.66 in1038.3 mb 0.00 in0.0 mm 0.00 in0.0 mm 0.00 in0.0 mm
06:00 AM -10.6°F-23.7°C -15.8°F-26.6°C 77% 1.0 mph N1.6 kmh N 2.0 mph3.2 kmh 30.66 in1038.3 mb 0.00 in0.0 mm 0.00 in0.0 mm 0.00 in0.0 mm
06:05 AM -10.7°F-23.7°C -15.9°F-26.6°C 77% 2.0 mph N3.2 kmh N 4.0 mph6.4 kmh 30.66 in1038.3 mb 0.00 in0.0 mm 0.00 in0.0 mm 0.00 in0.0 mm
06:10 AM -10.8°F-23.8°C -16.0°F-26.7°C 77% 2.0 mph N3.2 kmh N 4.0 mph6.4 kmh 30.66 in1038.3 mb 0.00 in0.0 mm 0.00 in0.0 mm 0.00 in0.0 mm
06:15 AM -10.9°F-23.8°C -16.1°F-26.7°C 77% 4.0 mph N6.4 kmh N 4.0 mph6.4 kmh 30.67 in1038.6 mb 0.00 in0.0 mm 0.00 in0.0 mm 0.00 in0.0 mm
06:20 AM -11.0°F-23.9°C -16.2°F-26.8°C 77% 3.0 mph N4.8 kmh N 5.0 mph8.0 kmh 30.67 in1038.6 mb 0.00 in0.0 mm 0.00 in0.0 mm 0.00 in0.0 mm
06:25 AM -11.0°F-23.9°C -16.2°F-26.8°C 77% 3.0 mph N4.8 kmh N 6.0 mph9.7 kmh 30.67 in1038.6 mb 0.00 in0.0 mm 0.00 in0.0 mm 0.00 in0.0 mm
06:30 AM -11.0°F-23.9°C -16.2°F-26.8°C 77% 4.0 mph N6.4 kmh N 4.0 mph6.4 kmh 30.67 in1038.6 mb 0.00 in0.0 mm 0.00 in0.0 mm 0.00 in0.0 mm
06:35 AM -11.1°F-23.9°C -16.3°F-26.8°C 77% 6.0 mph N9.7 kmh N 9.0 mph14.5 kmh 30.67 in1038.6 mb 0.00 in0.0 mm 0.00 in0.0 mm 0.00 in0.0 mm
06:40 AM -11.1°F-23.9°C -16.3°F-26.8°C 77% 3.0 mph N4.8 kmh N 9.0 mph14.5 kmh 30.67 in1038.6 mb 0.00 in0.0 mm 0.00 in0.0 mm 0.00 in0.0 mm
06:45 AM -11.1°F-23.9°C -16.3°F-26.8°C 77% 6.0 mph N9.7 kmh N 9.0 mph14.5 kmh 30.67 in1038.6 mb 0.00 in0.0 mm 0.00 in0.0 mm 0.00 in0.0 mm
06:50 AM -11.1°F-23.9°C -16.3°F-26.8°C 77% 3.0 mph N4.8 kmh N 10.0 mph16.1 kmh 30.66 in1038.3 mb 0.00 in0.0 mm 0.00 in0.0 mm 0.00 in0.0 mm
06:55 AM -11.1°F-23.9°C -16.3°F-26.8°C 77% 4.0 mph N6.4 kmh N 10.0 mph16.1 kmh 30.66 in1038.3 mb 0.00 in0.0 mm 0.00 in0.0 mm 0.00 in0.0 mm
07:00 AM -11.1°F-23.9°C -16.3°F-26.8°C 77% 5.0 mph N8.0 kmh N 5.0 mph8.0 kmh 30.66 in1038.3 mb 0.00 in0.0 mm 0.00 in0.0 mm 0.00 in0.0 mm
07:05 AM -11.2°F-24.0°C -16.4°F-26.9°C 77% 7.0 mph N11.3 kmh N 9.0 mph14.5 kmh 30.66 in1038.3 mb 0.00 in0.0 mm 0.00 in0.0 mm 0.00 in0.0 mm
07:10 AM -11.3°F-24.1°C -16.5°F-26.9°C 77% 6.0 mph N9.7 kmh N 10.0 mph16.1 kmh 30.66 in1038.3 mb 0.00 in0.0 mm 0.00 in0.0 mm 0.00 in0.0 mm
07:15 AM -11.4°F-24.1°C -16.6°F-27.0°C 77% 4.0 mph N6.4 kmh N 5.0 mph8.0 kmh 30.66 in1038.3 mb 0.00 in0.0 mm 0.00 in0.0 mm 0.00 in0.0 mm
07:20 AM -11.5°F-24.2°C -16.7°F-27.1°C 77% 3.0 mph N4.8 kmh N 5.0 mph8.0 kmh 30.67 in1038.6 mb 0.00 in0.0 mm 0.00 in0.0 mm 0.00 in0.0 mm
07:25 AM -11.5°F-24.2°C -16.7°F-27.1°C 77% 2.0 mph N3.2 kmh N 6.0 mph9.7 kmh 30.66 in1038.3 mb 0.00 in0.0 mm 0.00 in0.0 mm 0.00 in0.0 mm
07:30 AM -11.5°F-24.2°C -16.7°F-27.1°C 77% 2.0 mph N3.2 kmh N 3.0 mph4.8 kmh 30.67 in1038.6 mb 0.00 in0.0 mm 0.00 in0.0 mm 0.00 in0.0 mm
07:35 AM -11.5°F-24.2°C -16.7°F-27.1°C 77% 4.0 mph N6.4 kmh N 7.0 mph11.3 kmh 30.66 in1038.3 mb 0.00 in0.0 mm 0.00 in0.0 mm 0.00 in0.0 mm
07:40 AM -11.5°F-24.2°C -16.4°F-26.9°C 78% 4.0 mph N6.4 kmh N 7.0 mph11.3 kmh 30.66 in1038.3 mb 0.00 in0.0 mm 0.00 in0.0 mm 0.00 in0.0 mm
07:45 AM -11.4°F-24.1°C -16.3°F-26.8°C 78% 1.0 mph N1.6 kmh N 2.0 mph3.2 kmh 30.66 in1038.3 mb 0.00 in0.0 mm 0.00 in0.0 mm 0.00 in0.0 mm
07:50 AM -11.3°F-24.1°C -16.2°F-26.8°C 78% 4.0 mph N6.4 kmh N 4.0 mph6.4 kmh 30.67 in1038.6 mb 0.00 in0.0 mm 0.00 in0.0 mm 0.00 in0.0 mm
07:55 AM -11.3°F-24.1°C -16.5°F-26.9°C 77% 4.0 mph N6.4 kmh N 4.0 mph6.4 kmh 30.67 in1038.6 mb 0.00 in0.0 mm 0.00 in0.0 mm 0.00 in0.0 mm
08:00 AM -11.3°F-24.1°C -16.5°F-26.9°C 77% 5.0 mph N8.0 kmh N 5.0 mph8.0 kmh 30.67 in1038.6 mb 0.00 in0.0 mm 0.00 in0.0 mm 0.00 in0.0 mm
08:05 AM -11.3°F-24.1°C -16.5°F-26.9°C 77% 5.0 mph N8.0 kmh N 6.0 mph9.7 kmh 30.67 in1038.6 mb 0.00 in0.0 mm 0.00 in0.0 mm 0.00 in0.0 mm
08:10 AM -11.3°F-24.1°C -16.5°F-26.9°C 77% 5.0 mph N8.0 kmh N 6.0 mph9.7 kmh 30.67 in1038.6 mb 0.00 in0.0 mm 0.00 in0.0 mm 0.00 in0.0 mm
08:15 AM -11.2°F-24.0°C -16.4°F-26.9°C 77% 2.0 mph N3.2 kmh N 4.0 mph6.4 kmh 30.67 in1038.6 mb 0.00 in0.0 mm 0.00 in0.0 mm 0.00 in0.0 mm
08:20 AM -11.0°F-23.9°C -16.2°F-26.8°C 77% 2.0 mph N3.2 kmh N 5.0 mph8.0 kmh 30.67 in1038.6 mb 0.00 in0.0 mm 0.00 in0.0 mm 0.00 in0.0 mm
08:25 AM -10.8°F-23.8°C -16.0°F-26.7°C 77% 2.0 mph N3.2 kmh N 5.0 mph8.0 kmh 30.68 in1038.9 mb 0.00 in0.0 mm 0.00 in0.0 mm 0.00 in0.0 mm
08:30 AM -10.7°F-23.7°C -15.9°F-26.6°C 77% 3.0 mph N4.8 kmh N 3.0 mph4.8 kmh 30.67 in1038.6 mb 0.00 in0.0 mm 0.00 in0.0 mm 0.00 in0.0 mm
08:35 AM -10.6°F-23.7°C -15.8°F-26.6°C 77% 3.0 mph N4.8 kmh N 4.0 mph6.4 kmh 30.67 in1038.6 mb 0.00 in0.0 mm 0.00 in0.0 mm 0.00 in0.0 mm
08:40 AM -10.4°F-23.6°C -15.4°F-26.3°C 78% 4.0 mph N6.4 kmh N 5.0 mph8.0 kmh 30.67 in1038.6 mb 0.00 in0.0 mm 0.00 in0.0 mm 0.00 in0.0 mm
08:45 AM -10.0°F-23.3°C -15.0°F-26.1°C 78% 4.0 mph N6.4 kmh N 5.0 mph8.0 kmh 30.68 in1038.9 mb 0.00 in0.0 mm 0.00 in0.0 mm 0.00 in0.0 mm
08:50 AM -9.8°F-23.2°C -14.8°F-26.0°C 78% 4.0 mph N6.4 kmh N 5.0 mph8.0 kmh 30.68 in1038.9 mb 0.00 in0.0 mm 0.00 in0.0 mm 0.00 in0.0 mm
08:55 AM -9.5°F-23.1°C -14.5°F-25.8°C 78% 4.0 mph N6.4 kmh N 5.0 mph8.0 kmh 30.68 in1038.9 mb 0.00 in0.0 mm 0.00 in0.0 mm 0.00 in0.0 mm
09:00 AM -9.1°F-22.8°C -14.1°F-25.6°C 78% 3.0 mph N4.8 kmh N 4.0 mph6.4 kmh 30.67 in1038.6 mb 0.00 in0.0 mm 0.00 in0.0 mm 0.00 in0.0 mm
09:05 AM -8.7°F-22.6°C -13.7°F-25.4°C 78% 5.0 mph N8.0 kmh N 6.0 mph9.7 kmh 30.67 in1038.6 mb 0.00 in0.0 mm 0.00 in0.0 mm 0.00 in0.0 mm
09:10 AM -8.2°F-22.3°C -13.2°F-25.1°C 78% 4.0 mph N6.4 kmh N 6.0 mph9.7 kmh 30.67 in1038.6 mb 0.00 in0.0 mm 0.00 in0.0 mm 0.00 in0.0 mm
09:15 AM -7.8°F-22.1°C -12.8°F-24.9°C 78% 3.0 mph N4.8 kmh N 3.0 mph4.8 kmh 30.67 in1038.6 mb 0.00 in0.0 mm 0.00 in0.0 mm 0.00 in0.0 mm
09:20 AM -7.3°F-21.8°C -12.3°F-24.6°C 78% 3.0 mph N4.8 kmh N 4.0 mph6.4 kmh 30.67 in1038.6 mb 0.00 in0.0 mm 0.00 in0.0 mm 0.00 in0.0 mm
09:25 AM -6.9°F-21.6°C -11.9°F-24.4°C 78% 1.0 mph N1.6 kmh N 4.0 mph6.4 kmh 30.67 in1038.6 mb 0.00 in0.0 mm 0.00 in0.0 mm 0.00 in0.0 mm
09:30 AM -6.4°F-21.3°C -11.2°F-24.0°C 79% 5.0 mph N8.0 kmh N 5.0 mph8.0 kmh 30.67 in1038.6 mb 0.00 in0.0 mm 0.00 in0.0 mm 0.00 in0.0 mm
09:35 AM -5.9°F-21.1°C -10.7°F-23.7°C 79% 3.0 mph N4.8 kmh N 5.0 mph8.0 kmh 30.67 in1038.6 mb 0.00 in0.0 mm 0.00 in0.0 mm 0.00 in0.0 mm
09:40 AM -5.4°F-20.8°C -10.5°F-23.6°C 78% 3.0 mph N4.8 kmh N 6.0 mph9.7 kmh 30.67 in1038.6 mb 0.00 in0.0 mm 0.00 in0.0 mm 0.00 in0.0 mm
09:45 AM -5.0°F-20.6°C -10.1°F-23.4°C 78% 5.0 mph N8.0 kmh N 5.0 mph8.0 kmh 30.67 in1038.6 mb 0.00 in0.0 mm 0.00 in0.0 mm 0.00 in0.0 mm
09:50 AM -4.8°F-20.4°C -10.2°F-23.4°C 77% 7.0 mph N11.3 kmh N 8.0 mph12.9 kmh 30.66 in1038.3 mb 0.00 in0.0 mm 0.00 in0.0 mm 0.00 in0.0 mm
09:55 AM -4.8°F-20.4°C -10.4°F-23.6°C 76% 6.0 mph N9.7 kmh N 8.0 mph12.9 kmh 30.66 in1038.3 mb 0.00 in0.0 mm 0.00 in0.0 mm 0.00 in0.0 mm
10:00 AM -4.8°F-20.4°C -10.4°F-23.6°C 76% 5.0 mph N8.0 kmh N 5.0 mph8.0 kmh 30.66 in1038.3 mb 0.00 in0.0 mm 0.00 in0.0 mm 0.00 in0.0 mm
10:05 AM -4.8°F-20.4°C -10.4°F-23.6°C 76% 6.0 mph N9.7 kmh N 7.0 mph11.3 kmh 30.66 in1038.3 mb 0.00 in0.0 mm 0.00 in0.0 mm 0.00 in0.0 mm
10:10 AM -4.6°F-20.3°C -10.2°F-23.4°C 76% 6.0 mph N9.7 kmh N 7.0 mph11.3 kmh 30.66 in1038.3 mb 0.00 in0.0 mm 0.00 in0.0 mm 0.00 in0.0 mm
10:15 AM -4.6°F-20.3°C -10.2°F-23.4°C 76% 3.0 mph N4.8 kmh N 5.0 mph8.0 kmh 30.66 in1038.3 mb 0.00 in0.0 mm 0.00 in0.0 mm 0.00 in0.0 mm
10:20 AM -4.6°F-20.3°C -10.2°F-23.4°C 76% 5.0 mph N8.0 kmh N 6.0 mph9.7 kmh 30.66 in1038.3 mb 0.00 in0.0 mm 0.00 in0.0 mm 0.00 in0.0 mm
10:25 AM -4.5°F-20.3°C -9.9°F-23.3°C 77% 4.0 mph N6.4 kmh N 6.0 mph9.7 kmh 30.66 in1038.3 mb 0.00 in0.0 mm 0.00 in0.0 mm 0.00 in0.0 mm
10:30 AM -4.3°F-20.2°C -9.7°F-23.2°C 77% 3.0 mph N4.8 kmh N 5.0 mph8.0 kmh 30.66 in1038.3 mb 0.00 in0.0 mm 0.00 in0.0 mm 0.00 in0.0 mm
10:35 AM -4.1°F-20.1°C -9.5°F-23.1°C 77% 5.0 mph N8.0 kmh N 5.0 mph8.0 kmh 30.66 in1038.3 mb 0.00 in0.0 mm 0.00 in0.0 mm 0.00 in0.0 mm
10:40 AM -3.9°F-19.9°C -9.3°F-22.9°C 77% 4.0 mph N6.4 kmh N 6.0 mph9.7 kmh 30.65 in1037.9 mb 0.00 in0.0 mm 0.00 in0.0 mm 0.00 in0.0 mm
10:45 AM -3.7°F-19.8°C -9.1°F-22.8°C 77% 4.0 mph N6.4 kmh N 4.0 mph6.4 kmh 30.64 in1037.6 mb 0.00 in0.0 mm 0.00 in0.0 mm 0.00 in0.0 mm
10:50 AM -3.5°F-19.7°C -8.9°F-22.7°C 77% 4.0 mph N6.4 kmh N 5.0 mph8.0 kmh 30.64 in1037.6 mb 0.00 in0.0 mm 0.00 in0.0 mm 0.00 in0.0 mm
10:55 AM -3.2°F-19.6°C -8.6°F-22.6°C 77% 6.0 mph N9.7 kmh N 6.0 mph9.7 kmh 30.64 in1037.6 mb 0.00 in0.0 mm 0.00 in0.0 mm 0.00 in0.0 mm
11:00 AM -3.0°F-19.4°C -8.4°F-22.4°C 77% 2.0 mph N3.2 kmh N 2.0 mph3.2 kmh 30.64 in1037.6 mb 0.00 in0.0 mm 0.00 in0.0 mm 0.00 in0.0 mm
11:05 AM -2.7°F-19.3°C -8.1°F-22.3°C 77% 6.0 mph N9.7 kmh N 7.0 mph11.3 kmh 30.64 in1037.6 mb 0.00 in0.0 mm 0.00 in0.0 mm 0.00 in0.0 mm
11:10 AM -2.4°F-19.1°C -7.8°F-22.1°C 77% 4.0 mph N6.4 kmh N 7.0 mph11.3 kmh 30.64 in1037.6 mb 0.00 in0.0 mm 0.00 in0.0 mm 0.00 in0.0 mm
11:15 AM -2.2°F-19.0°C -7.9°F-22.2°C 76% 3.0 mph N4.8 kmh N 6.0 mph9.7 kmh 30.63 in1037.3 mb 0.00 in0.0 mm 0.00 in0.0 mm 0.00 in0.0 mm
11:20 AM -2.1°F-18.9°C -7.8°F-22.1°C 76% 4.0 mph N6.4 kmh N 7.0 mph11.3 kmh 30.63 in1037.3 mb 0.00 in0.0 mm 0.00 in0.0 mm 0.00 in0.0 mm
11:25 AM -1.9°F-18.8°C -7.6°F-22.0°C 76% 2.0 mph N3.2 kmh N 9.0 mph14.5 kmh 30.63 in1037.3 mb 0.00 in0.0 mm 0.00 in0.0 mm 0.00 in0.0 mm
11:30 AM -1.7°F-18.7°C -7.4°F-21.9°C 76% 5.0 mph N8.0 kmh N 5.0 mph8.0 kmh 30.63 in1037.3 mb 0.00 in0.0 mm 0.00 in0.0 mm 0.00 in0.0 mm
11:35 AM -1.3°F-18.5°C -6.8°F-21.6°C 77% 5.0 mph N8.0 kmh N 7.0 mph11.3 kmh 30.62 in1036.9 mb 0.00 in0.0 mm 0.00 in0.0 mm 0.00 in0.0 mm
11:40 AM -0.9°F-18.3°C -6.4°F-21.3°C 77% 2.0 mph N3.2 kmh N 7.0 mph11.3 kmh 30.62 in1036.9 mb 0.00 in0.0 mm 0.00 in0.0 mm 0.00 in0.0 mm
11:45 AM -0.5°F-18.1°C -6.2°F-21.2°C 76% 4.0 mph N6.4 kmh N 7.0 mph11.3 kmh 30.61 in1036.6 mb 0.00 in0.0 mm 0.00 in0.0 mm 0.00 in0.0 mm
11:50 AM -0.3°F-17.9°C -6.3°F-21.3°C 75% 1.0 mph N1.6 kmh N 7.0 mph11.3 kmh 30.60 in1036.2 mb 0.00 in0.0 mm 0.00 in0.0 mm 0.00 in0.0 mm
11:55 AM -0.1°F-17.8°C -6.1°F-21.2°C 75% 2.0 mph N3.2 kmh N 8.0 mph12.9 kmh 30.60 in1036.2 mb 0.00 in0.0 mm 0.00 in0.0 mm 0.00 in0.0 mm
12:00 PM 0.2°F-17.7°C -5.8°F-21.0°C 75% 5.0 mph N8.0 kmh N 5.0 mph8.0 kmh 30.59 in1035.9 mb 0.00 in0.0 mm 0.00 in0.0 mm 0.00 in0.0 mm
12:05 PM 0.5°F-17.5°C -5.5°F-20.8°C 75% 5.0 mph N8.0 kmh N 8.0 mph12.9 kmh 30.59 in1035.9 mb 0.00 in0.0 mm 0.00 in0.0 mm 0.00 in0.0 mm
12:10 PM 0.8°F-17.3°C -5.0°F-20.6°C 76% 6.0 mph N9.7 kmh N 8.0 mph12.9 kmh 30.59 in1035.9 mb 0.00 in0.0 mm 0.00 in0.0 mm 0.00 in0.0 mm
12:15 PM 1.1°F-17.2°C -5.0°F-20.6°C 75% 3.0 mph N4.8 kmh N 5.0 mph8.0 kmh 30.58 in1035.6 mb 0.00 in0.0 mm 0.00 in0.0 mm 0.00 in0.0 mm
12:20 PM 1.5°F-16.9°C -4.6°F-20.3°C 75% 3.0 mph N4.8 kmh N 5.0 mph8.0 kmh 30.58 in1035.6 mb 0.00 in0.0 mm 0.00 in0.0 mm 0.00 in0.0 mm
12:25 PM 1.9°F-16.7°C -4.2°F-20.1°C 75% 5.0 mph N8.0 kmh N 8.0 mph12.9 kmh 30.58 in1035.6 mb 0.00 in0.0 mm 0.00 in0.0 mm 0.00 in0.0 mm
12:30 PM 1.9°F-16.7°C -4.5°F-20.3°C 74% 6.0 mph N9.7 kmh N 8.0 mph12.9 kmh 30.58 in1035.6 mb 0.00 in0.0 mm 0.00 in0.0 mm 0.00 in0.0 mm
12:35 PM 1.8°F-16.8°C -4.6°F-20.3°C 74% 5.0 mph N8.0 kmh N 10.0 mph16.1 kmh 30.57 in1035.2 mb 0.00 in0.0 mm 0.00 in0.0 mm 0.00 in0.0 mm
12:40 PM 1.8°F-16.8°C -4.6°F-20.3°C 74% 6.0 mph N9.7 kmh N 10.0 mph16.1 kmh 30.57 in1035.2 mb 0.00 in0.0 mm 0.00 in0.0 mm 0.00 in0.0 mm
12:45 PM 1.9°F-16.7°C -4.7°F-20.4°C 73% 2.0 mph N3.2 kmh N 6.0 mph9.7 kmh 30.57 in1035.2 mb 0.00 in0.0 mm 0.00 in0.0 mm 0.00 in0.0 mm
12:50 PM 2.1°F-16.6°C -4.3°F-20.2°C 74% 5.0 mph N8.0 kmh N 7.0 mph11.3 kmh 30.57 in1035.2 mb 0.00 in0.0 mm 0.00 in0.0 mm 0.00 in0.0 mm
12:55 PM 2.2°F-16.6°C -4.5°F-20.3°C 73% 4.0 mph N6.4 kmh N 7.0 mph11.3 kmh 30.57 in1035.2 mb 0.00 in0.0 mm 0.00 in0.0 mm 0.00 in0.0 mm
01:00 PM 2.5°F-16.4°C -4.2°F-20.1°C 73% 6.0 mph N9.7 kmh N 6.0 mph9.7 kmh 30.56 in1034.9 mb 0.00 in0.0 mm 0.00 in0.0 mm 0.00 in0.0 mm
01:05 PM 2.6°F-16.3°C -4.1°F-20.1°C 73% 3.0 mph N4.8 kmh N 7.0 mph11.3 kmh 30.56 in1034.9 mb 0.00 in0.0 mm 0.00 in0.0 mm 0.00 in0.0 mm
01:10 PM 3.1°F-16.1°C -3.3°F-19.6°C 74% 3.0 mph N4.8 kmh N 7.0 mph11.3 kmh 30.56 in1034.9 mb 0.00 in0.0 mm 0.00 in0.0 mm 0.00 in0.0 mm
01:15 PM 3.3°F-15.9°C -3.7°F-19.8°C 72% 5.0 mph N8.0 kmh N 5.0 mph8.0 kmh 30.56 in1034.9 mb 0.00 in0.0 mm 0.00 in0.0 mm 0.00 in0.0 mm
01:20 PM 3.5°F-15.8°C -3.5°F-19.7°C 72% 2.0 mph N3.2 kmh N 7.0 mph11.3 kmh 30.55 in1034.5 mb 0.00 in0.0 mm 0.00 in0.0 mm 0.00 in0.0 mm
01:25 PM 4.0°F-15.6°C -3.3°F-19.6°C 71% 2.0 mph N3.2 kmh N 8.0 mph12.9 kmh 30.55 in1034.5 mb 0.00 in0.0 mm 0.00 in0.0 mm 0.00 in0.0 mm
01:30 PM 4.4°F-15.3°C -2.9°F-19.4°C 71% 5.0 mph N8.0 kmh N 6.0 mph9.7 kmh 30.55 in1034.5 mb 0.00 in0.0 mm 0.00 in0.0 mm 0.00 in0.0 mm
01:35 PM 4.6°F-15.2°C -2.7°F-19.3°C 71% 4.0 mph N6.4 kmh N 8.0 mph12.9 kmh 30.54 in1034.2 mb 0.00 in0.0 mm 0.00 in0.0 mm 0.00 in0.0 mm
01:40 PM 4.6°F-15.2°C -2.7°F-19.3°C 71% 5.0 mph N8.0 kmh N 8.0 mph12.9 kmh 30.53 in1033.9 mb 0.00 in0.0 mm 0.00 in0.0 mm 0.00 in0.0 mm
01:45 PM 4.6°F-15.2°C -3.0°F-19.4°C 70% 5.0 mph N8.0 kmh N 7.0 mph11.3 kmh 30.52 in1033.5 mb 0.00 in0.0 mm 0.00 in0.0 mm 0.00 in0.0 mm
01:50 PM 4.6°F-15.2°C -2.7°F-19.3°C 71% 6.0 mph N9.7 kmh N 10.0 mph16.1 kmh 30.52 in1033.5 mb 0.00 in0.0 mm 0.00 in0.0 mm 0.00 in0.0 mm
01:55 PM 4.7°F-15.2°C -2.6°F-19.2°C 71% 6.0 mph N9.7 kmh N 10.0 mph16.1 kmh 30.51 in1033.2 mb 0.00 in0.0 mm 0.00 in0.0 mm 0.00 in0.0 mm
02:00 PM 5.1°F-14.9°C -1.9°F-18.8°C 72% 4.0 mph N6.4 kmh N 5.0 mph8.0 kmh 30.51 in1033.2 mb 0.00 in0.0 mm 0.00 in0.0 mm 0.00 in0.0 mm
02:05 PM 5.6°F-14.7°C -1.8°F-18.8°C 71% 7.0 mph N11.3 kmh N 11.0 mph17.7 kmh 30.50 in1032.8 mb 0.00 in0.0 mm 0.00 in0.0 mm 0.00 in0.0 mm
02:10 PM 5.9°F-14.5°C -1.8°F-18.8°C 70% 7.0 mph N11.3 kmh N 12.0 mph19.3 kmh 30.50 in1032.8 mb 0.00 in0.0 mm 0.00 in0.0 mm 0.00 in0.0 mm
02:15 PM 6.1°F-14.4°C -1.6°F-18.7°C 70% 8.0 mph N12.9 kmh N 9.0 mph14.5 kmh 30.50 in1032.8 mb 0.00 in0.0 mm 0.00 in0.0 mm 0.00 in0.0 mm
02:20 PM 6.4°F-14.2°C -1.0°F-18.3°C 71% 6.0 mph N9.7 kmh N 10.0 mph16.1 kmh 30.49 in1032.5 mb 0.00 in0.0 mm 0.00 in0.0 mm 0.00 in0.0 mm
02:25 PM 6.7°F-14.1°C -0.4°F-18.0°C 72% 5.0 mph N8.0 kmh N 10.0 mph16.1 kmh 30.49 in1032.5 mb 0.00 in0.0 mm 0.00 in0.0 mm 0.00 in0.0 mm
02:30 PM 7.2°F-13.8°C -0.2°F-17.9°C 71% 6.0 mph N9.7 kmh N 7.0 mph11.3 kmh 30.49 in1032.5 mb 0.00 in0.0 mm 0.00 in0.0 mm 0.00 in0.0 mm
02:35 PM 7.4°F-13.7°C -0.3°F-17.9°C 70% 4.0 mph N6.4 kmh N 14.0 mph22.5 kmh 30.48 in1032.2 mb 0.00 in0.0 mm 0.00 in0.0 mm 0.00 in0.0 mm
02:40 PM 7.6°F-13.6°C -0.1°F-17.8°C 70% 8.0 mph N12.9 kmh N 14.0 mph22.5 kmh 30.48 in1032.2 mb 0.00 in0.0 mm 0.00 in0.0 mm 0.00 in0.0 mm
02:45 PM 7.6°F-13.6°C -0.1°F-17.8°C 70% 6.0 mph N9.7 kmh N 10.0 mph16.1 kmh 30.48 in1032.2 mb 0.00 in0.0 mm 0.00 in0.0 mm 0.00 in0.0 mm
02:50 PM 7.6°F-13.6°C -0.1°F-17.8°C 70% 4.0 mph N6.4 kmh N 10.0 mph16.1 kmh 30.48 in1032.2 mb 0.00 in0.0 mm 0.00 in0.0 mm 0.00 in0.0 mm
02:55 PM 7.9°F-13.4°C 0.2°F-17.7°C 70% 4.0 mph N6.4 kmh N 11.0 mph17.7 kmh 30.47 in1031.8 mb 0.00 in0.0 mm 0.00 in0.0 mm 0.00 in0.0 mm
03:00 PM 8.2°F-13.2°C 0.5°F-17.5°C 70% 6.0 mph N9.7 kmh N 7.0 mph11.3 kmh 30.47 in1031.8 mb 0.00 in0.0 mm 0.00 in0.0 mm 0.00 in0.0 mm
03:05 PM 8.2°F-13.2°C 0.2°F-17.7°C 69% 4.0 mph N6.4 kmh N 9.0 mph14.5 kmh 30.47 in1031.8 mb 0.00 in0.0 mm 0.00 in0.0 mm 0.00 in0.0 mm
03:10 PM 8.3°F-13.2°C 0.2°F-17.7°C 69% 3.0 mph N4.8 kmh N 11.0 mph17.7 kmh 30.46 in1031.5 mb 0.00 in0.0 mm 0.00 in0.0 mm 0.00 in0.0 mm
03:20 PM 8.4°F-13.1°C -0.3°F-17.9°C 67% 7.0 mph N11.3 kmh N 13.0 mph20.9 kmh 30.46 in1031.5 mb 0.00 in0.0 mm 0.00 in0.0 mm 0.00 in0.0 mm
03:25 PM 8.1°F-13.3°C -0.3°F-17.9°C 68% 9.0 mph N14.5 kmh N 13.0 mph20.9 kmh 30.45 in1031.2 mb 0.00 in0.0 mm 0.00 in0.0 mm 0.00 in0.0 mm
03:30 PM 8.0°F-13.3°C -0.1°F-17.8°C 69% 5.0 mph N8.0 kmh N 5.0 mph8.0 kmh 30.45 in1031.2 mb 0.00 in0.0 mm 0.00 in0.0 mm 0.00 in0.0 mm
03:35 PM 8.1°F-13.3°C 0.1°F-17.7°C 69% 3.0 mph N4.8 kmh N 10.0 mph16.1 kmh 30.45 in1031.2 mb 0.00 in0.0 mm 0.00 in0.0 mm 0.00 in0.0 mm
03:40 PM 8.0°F-13.3°C -0.4°F-18.0°C 68% 7.0 mph N11.3 kmh N 12.0 mph19.3 kmh 30.45 in1031.2 mb 0.00 in0.0 mm 0.00 in0.0 mm 0.00 in0.0 mm
03:45 PM 7.8°F-13.4°C -0.6°F-18.1°C 68% 6.0 mph N9.7 kmh N 7.0 mph11.3 kmh 30.45 in1031.2 mb 0.00 in0.0 mm 0.00 in0.0 mm 0.00 in0.0 mm
03:50 PM 8.0°F-13.3°C -0.1°F-17.8°C 69% 3.0 mph N4.8 kmh N 10.0 mph16.1 kmh 30.45 in1031.2 mb 0.00 in0.0 mm 0.00 in0.0 mm 0.00 in0.0 mm
03:55 PM 8.1°F-13.3°C 0.1°F-17.7°C 69% 5.0 mph N8.0 kmh N 10.0 mph16.1 kmh 30.45 in1031.2 mb 0.00 in0.0 mm 0.00 in0.0 mm 0.00 in0.0 mm
04:00 PM 8.1°F-13.3°C 0.1°F-17.7°C 69% 9.0 mph N14.5 kmh N 11.0 mph17.7 kmh 30.45 in1031.2 mb 0.00 in0.0 mm 0.00 in0.0 mm 0.00 in0.0 mm
04:05 PM 8.0°F-13.3°C -0.1°F-17.8°C 69% 4.0 mph N6.4 kmh N 11.0 mph17.7 kmh 30.45 in1031.2 mb 0.00 in0.0 mm 0.00 in0.0 mm 0.00 in0.0 mm
04:10 PM 8.1°F-13.3°C 0.4°F-17.6°C 70% 6.0 mph N9.7 kmh N 11.0 mph17.7 kmh 30.44 in1030.8 mb 0.00 in0.0 mm 0.00 in0.0 mm 0.00 in0.0 mm
04:15 PM 8.0°F-13.3°C -0.4°F-18.0°C 68% 5.0 mph N8.0 kmh N 8.0 mph12.9 kmh 30.44 in1030.8 mb 0.00 in0.0 mm 0.00 in0.0 mm 0.00 in0.0 mm
04:20 PM 7.6°F-13.6°C -0.7°F-18.2°C 68% 10.0 mph N16.1 kmh N 10.0 mph16.1 kmh 30.43 in1030.5 mb 0.00 in0.0 mm 0.00 in0.0 mm 0.00 in0.0 mm
04:25 PM 7.1°F-13.8°C -1.2°F-18.4°C 68% 6.0 mph N9.7 kmh N 12.0 mph19.3 kmh 30.43 in1030.5 mb 0.00 in0.0 mm 0.00 in0.0 mm 0.00 in0.0 mm
04:30 PM 6.9°F-13.9°C -0.8°F-18.2°C 70% 7.0 mph N11.3 kmh N 7.0 mph11.3 kmh 30.44 in1030.8 mb 0.00 in0.0 mm 0.00 in0.0 mm 0.00 in0.0 mm
04:35 PM 6.7°F-14.1°C -0.7°F-18.2°C 71% 5.0 mph N8.0 kmh N 7.0 mph11.3 kmh 30.43 in1030.5 mb 0.00 in0.0 mm 0.00 in0.0 mm 0.00 in0.0 mm
04:40 PM 6.5°F-14.2°C -0.9°F-18.3°C 71% 5.0 mph N8.0 kmh N 10.0 mph16.1 kmh 30.43 in1030.5 mb 0.00 in0.0 mm 0.00 in0.0 mm 0.00 in0.0 mm
04:45 PM 6.3°F-14.3°C -0.8°F-18.2°C 72% 4.0 mph N6.4 kmh N 6.0 mph9.7 kmh 30.44 in1030.8 mb 0.00 in0.0 mm 0.00 in0.0 mm 0.00 in0.0 mm
04:50 PM 6.1°F-14.4°C -1.0°F-18.3°C 72% 5.0 mph N8.0 kmh N 9.0 mph14.5 kmh 30.43 in1030.5 mb 0.00 in0.0 mm 0.00 in0.0 mm 0.00 in0.0 mm
04:55 PM 5.9°F-14.5°C -1.2°F-18.4°C 72% 5.0 mph N8.0 kmh N 9.0 mph14.5 kmh 30.43 in1030.5 mb 0.00 in0.0 mm 0.00 in0.0 mm 0.00 in0.0 mm
05:00 PM 5.7°F-14.6°C -1.4°F-18.6°C 72% 4.0 mph N6.4 kmh N 8.0 mph12.9 kmh 30.43 in1030.5 mb 0.00 in0.0 mm 0.00 in0.0 mm 0.00 in0.0 mm
05:05 PM 5.5°F-14.7°C -1.3°F-18.5°C 73% 4.0 mph N6.4 kmh N 9.0 mph14.5 kmh 30.42 in1030.1 mb 0.00 in0.0 mm 0.00 in0.0 mm 0.00 in0.0 mm
05:10 PM 5.4°F-14.8°C -1.4°F-18.6°C 73% 3.0 mph N4.8 kmh N 9.0 mph14.5 kmh 30.42 in1030.1 mb 0.00 in0.0 mm 0.00 in0.0 mm 0.00 in0.0 mm
05:15 PM 5.3°F-14.8°C -1.5°F-18.6°C 73% 3.0 mph N4.8 kmh N 4.0 mph6.4 kmh 30.42 in1030.1 mb 0.00 in0.0 mm 0.00 in0.0 mm 0.00 in0.0 mm
05:20 PM 5.1°F-14.9°C -1.7°F-18.7°C 73% 6.0 mph N9.7 kmh N 9.0 mph14.5 kmh 30.42 in1030.1 mb 0.00 in0.0 mm 0.00 in0.0 mm 0.00 in0.0 mm
05:25 PM 5.0°F-15.0°C -1.8°F-18.8°C 73% 5.0 mph N8.0 kmh N 9.0 mph14.5 kmh 30.41 in1029.8 mb 0.00 in0.0 mm 0.00 in0.0 mm 0.00 in0.0 mm
05:30 PM 4.8°F-15.1°C -1.7°F-18.7°C 74% 7.0 mph N11.3 kmh N 7.0 mph11.3 kmh 30.41 in1029.8 mb 0.00 in0.0 mm 0.00 in0.0 mm 0.00 in0.0 mm
05:35 PM 4.6°F-15.2°C -1.9°F-18.8°C 74% 6.0 mph N9.7 kmh N 10.0 mph16.1 kmh 30.40 in1029.5 mb 0.00 in0.0 mm 0.00 in0.0 mm 0.00 in0.0 mm
05:40 PM 4.1°F-15.5°C -2.3°F-19.1°C 74% 7.0 mph N11.3 kmh N 11.0 mph17.7 kmh 30.40 in1029.5 mb 0.00 in0.0 mm 0.00 in0.0 mm 0.00 in0.0 mm
05:45 PM 3.6°F-15.8°C -2.3°F-19.1°C 76% 5.0 mph N8.0 kmh N 8.0 mph12.9 kmh 30.40 in1029.5 mb 0.00 in0.0 mm 0.00 in0.0 mm 0.00 in0.0 mm
05:50 PM 3.2°F-16.0°C -2.6°F-19.2°C 76% 7.0 mph N11.3 kmh N 10.0 mph16.1 kmh 30.39 in1029.1 mb 0.00 in0.0 mm 0.00 in0.0 mm 0.00 in0.0 mm
05:55 PM 2.9°F-16.2°C -2.7°F-19.3°C 77% 6.0 mph N9.7 kmh N 10.0 mph16.1 kmh 30.39 in1029.1 mb 0.00 in0.0 mm 0.00 in0.0 mm 0.00 in0.0 mm
06:00 PM 2.2°F-16.6°C -3.1°F-19.5°C 78% 9.0 mph N14.5 kmh N 10.0 mph16.1 kmh 30.38 in1028.8 mb 0.00 in0.0 mm 0.00 in0.0 mm 0.00 in0.0 mm
06:05 PM 1.9°F-16.7°C -3.1°F-19.5°C 79% 9.0 mph N14.5 kmh N 14.0 mph22.5 kmh 30.38 in1028.8 mb 0.00 in0.0 mm 0.00 in0.0 mm 0.00 in0.0 mm
06:10 PM 1.7°F-16.8°C -3.3°F-19.6°C 79% 6.0 mph N9.7 kmh N 14.0 mph22.5 kmh 30.38 in1028.8 mb 0.00 in0.0 mm 0.00 in0.0 mm 0.00 in0.0 mm
06:15 PM 1.5°F-16.9°C -3.5°F-19.7°C 79% 6.0 mph N9.7 kmh N 8.0 mph12.9 kmh 30.38 in1028.8 mb 0.00 in0.0 mm 0.00 in0.0 mm 0.00 in0.0 mm
06:20 PM 1.3°F-17.1°C -3.4°F-19.7°C 80% 8.0 mph N12.9 kmh N 12.0 mph19.3 kmh 30.38 in1028.8 mb 0.00 in0.0 mm 0.00 in0.0 mm 0.00 in0.0 mm
06:25 PM 1.0°F-17.2°C -3.7°F-19.8°C 80% 7.0 mph N11.3 kmh N 13.0 mph20.9 kmh 30.37 in1028.4 mb 0.00 in0.0 mm 0.00 in0.0 mm 0.00 in0.0 mm
06:30 PM 0.7°F-17.4°C -4.0°F-20.0°C 80% 9.0 mph N14.5 kmh N 9.0 mph14.5 kmh 30.36 in1028.1 mb 0.00 in0.0 mm 0.00 in0.0 mm 0.00 in0.0 mm
06:35 PM 0.5°F-17.5°C -3.9°F-19.9°C 81% 7.0 mph N11.3 kmh N 14.0 mph22.5 kmh 30.36 in1028.1 mb 0.00 in0.0 mm 0.00 in0.0 mm 0.00 in0.0 mm
06:40 PM 0.3°F-17.6°C -4.1°F-20.1°C 81% 9.0 mph N14.5 kmh N 16.0 mph25.7 kmh 30.35 in1027.8 mb 0.00 in0.0 mm 0.00 in0.0 mm 0.00 in0.0 mm
06:45 PM 0.1°F-17.7°C -4.3°F-20.2°C 81% 8.0 mph N12.9 kmh N 12.0 mph19.3 kmh 30.35 in1027.8 mb 0.00 in0.0 mm 0.00 in0.0 mm 0.00 in0.0 mm
06:50 PM 0.1°F-17.7°C -4.2°F-20.1°C 82% 12.0 mph N19.3 kmh N 12.0 mph19.3 kmh 30.35 in1027.8 mb 0.00 in0.0 mm 0.00 in0.0 mm 0.00 in0.0 mm
06:55 PM 0.1°F-17.7°C -4.2°F-20.1°C 82% 7.0 mph N11.3 kmh N 14.0 mph22.5 kmh 30.35 in1027.8 mb 0.00 in0.0 mm 0.00 in0.0 mm 0.00 in0.0 mm
07:00 PM 0.1°F-17.7°C -4.2°F-20.1°C 82% 9.0 mph N14.5 kmh N 9.0 mph14.5 kmh 30.34 in1027.4 mb 0.00 in0.0 mm 0.00 in0.0 mm 0.00 in0.0 mm
07:05 PM -0.1°F-17.8°C -4.3°F-20.2°C 82% 11.0 mph N17.7 kmh N 13.0 mph20.9 kmh 30.34 in1027.4 mb 0.00 in0.0 mm 0.00 in0.0 mm 0.00 in0.0 mm
07:10 PM -0.3°F-17.9°C -4.5°F-20.3°C 82% 8.0 mph N12.9 kmh N 15.0 mph24.1 kmh 30.33 in1027.1 mb 0.00 in0.0 mm 0.00 in0.0 mm 0.00 in0.0 mm
07:15 PM -0.7°F-18.2°C -4.9°F-20.5°C 82% 9.0 mph N14.5 kmh N 9.0 mph14.5 kmh 30.33 in1027.1 mb 0.00 in0.0 mm 0.00 in0.0 mm 0.00 in0.0 mm
07:20 PM -0.9°F-18.3°C -5.1°F-20.6°C 82% 7.0 mph N11.3 kmh N 15.0 mph24.1 kmh 30.34 in1027.4 mb 0.00 in0.0 mm 0.00 in0.0 mm 0.00 in0.0 mm
07:25 PM -1.1°F-18.4°C -5.3°F-20.7°C 82% 13.0 mph N20.9 kmh N 16.0 mph25.7 kmh 30.33 in1027.1 mb 0.00 in0.0 mm 0.00 in0.0 mm 0.00 in0.0 mm
07:30 PM -1.4°F-18.6°C -5.6°F-20.9°C 82% 10.0 mph N16.1 kmh N 13.0 mph20.9 kmh 30.33 in1027.1 mb 0.00 in0.0 mm 0.00 in0.0 mm 0.00 in0.0 mm
07:35 PM -1.6°F-18.7°C -5.5°F-20.8°C 83% 12.0 mph N19.3 kmh N 17.0 mph27.4 kmh 30.33 in1027.1 mb 0.00 in0.0 mm 0.00 in0.0 mm 0.00 in0.0 mm
07:40 PM -1.8°F-18.8°C -5.7°F-20.9°C 83% 8.0 mph N12.9 kmh N 18.0 mph29.0 kmh 30.33 in1027.1 mb 0.00 in0.0 mm 0.00 in0.0 mm 0.00 in0.0 mm
07:45 PM -2.0°F-18.9°C -5.9°F-21.1°C 83% 13.0 mph N20.9 kmh N 13.0 mph20.9 kmh 30.32 in1026.8 mb 0.00 in0.0 mm 0.00 in0.0 mm 0.00 in0.0 mm
07:50 PM -2.2°F-19.0°C -6.1°F-21.2°C 83% 8.0 mph N12.9 kmh N 16.0 mph25.7 kmh 30.31 in1026.4 mb 0.00 in0.0 mm 0.00 in0.0 mm 0.00 in0.0 mm
07:55 PM -2.3°F-19.1°C -6.2°F-21.2°C 83% 7.0 mph N11.3 kmh N 16.0 mph25.7 kmh 30.31 in1026.4 mb 0.00 in0.0 mm 0.00 in0.0 mm 0.00 in0.0 mm
08:00 PM -2.3°F-19.1°C -6.2°F-21.2°C 83% 17.0 mph N27.4 kmh N 17.0 mph27.4 kmh 30.31 in1026.4 mb 0.00 in0.0 mm 0.00 in0.0 mm 0.00 in0.0 mm
08:05 PM -2.3°F-19.1°C -6.2°F-21.2°C 83% 13.0 mph N20.9 kmh N 20.0 mph32.2 kmh 30.30 in1026.1 mb 0.00 in0.0 mm 0.00 in0.0 mm 0.00 in0.0 mm
08:10 PM -2.3°F-19.1°C -6.2°F-21.2°C 83% 9.0 mph N14.5 kmh N 20.0 mph32.2 kmh 30.30 in1026.1 mb 0.00 in0.0 mm 0.00 in0.0 mm 0.00 in0.0 mm
08:15 PM -2.4°F-19.1°C -6.3°F-21.3°C 83% 6.0 mph N9.7 kmh N 12.0 mph19.3 kmh 30.30 in1026.1 mb 0.00 in0.0 mm 0.00 in0.0 mm 0.00 in0.0 mm
08:20 PM -2.6°F-19.2°C -6.5°F-21.4°C 83% 10.0 mph N16.1 kmh N 16.0 mph25.7 kmh 30.30 in1026.1 mb 0.00 in0.0 mm 0.00 in0.0 mm 0.00 in0.0 mm
08:25 PM -2.7°F-19.3°C -6.6°F-21.4°C 83% 8.0 mph N12.9 kmh N 17.0 mph27.4 kmh 30.30 in1026.1 mb 0.00 in0.0 mm 0.00 in0.0 mm 0.00 in0.0 mm
08:30 PM -2.8°F-19.3°C -6.4°F-21.3°C 84% 13.0 mph N20.9 kmh N 15.0 mph24.1 kmh 30.30 in1026.1 mb 0.00 in0.0 mm 0.00 in0.0 mm 0.00 in0.0 mm
08:35 PM -2.8°F-19.3°C -6.4°F-21.3°C 84% 10.0 mph N16.1 kmh N 19.0 mph30.6 kmh 30.29 in1025.7 mb 0.00 in0.0 mm 0.00 in0.0 mm 0.00 in0.0 mm
08:40 PM -2.8°F-19.3°C -6.4°F-21.3°C 84% 13.0 mph N20.9 kmh N 19.0 mph30.6 kmh 30.29 in1025.7 mb 0.00 in0.0 mm 0.00 in0.0 mm 0.00 in0.0 mm
08:45 PM -3.0°F-19.4°C -6.6°F-21.4°C 84% 8.0 mph N12.9 kmh N 11.0 mph17.7 kmh 30.29 in1025.7 mb 0.00 in0.0 mm 0.00 in0.0 mm 0.00 in0.0 mm
08:50 PM -3.0°F-19.4°C -6.6°F-21.4°C 84% 11.0 mph N17.7 kmh N 19.0 mph30.6 kmh 30.29 in1025.7 mb 0.00 in0.0 mm 0.00 in0.0 mm 0.00 in0.0 mm
08:55 PM -3.0°F-19.4°C -6.6°F-21.4°C 84% 11.0 mph N17.7 kmh N 19.0 mph30.6 kmh 30.28 in1025.4 mb 0.00 in0.0 mm 0.00 in0.0 mm 0.00 in0.0 mm
09:00 PM -3.0°F-19.4°C -6.6°F-21.4°C 84% 11.0 mph N17.7 kmh N 13.0 mph20.9 kmh 30.27 in1025.1 mb 0.00 in0.0 mm 0.00 in0.0 mm 0.00 in0.0 mm
09:05 PM -3.0°F-19.4°C -6.6°F-21.4°C 84% 8.0 mph N12.9 kmh N 19.0 mph30.6 kmh 30.27 in1025.1 mb 0.00 in0.0 mm 0.00 in0.0 mm 0.00 in0.0 mm
09:10 PM -2.9°F-19.4°C -6.5°F-21.4°C 84% 6.0 mph N9.7 kmh N 22.0 mph35.4 kmh 30.26 in1024.7 mb 0.00 in0.0 mm 0.00 in0.0 mm 0.00 in0.0 mm
09:15 PM -2.9°F-19.4°C -6.5°F-21.4°C 84% 14.0 mph N22.5 kmh N 19.0 mph30.6 kmh 30.26 in1024.7 mb 0.00 in0.0 mm 0.00 in0.0 mm 0.00 in0.0 mm
09:20 PM -3.0°F-19.4°C -6.6°F-21.4°C 84% 14.0 mph N22.5 kmh N 22.0 mph35.4 kmh 30.25 in1024.4 mb 0.00 in0.0 mm 0.00 in0.0 mm 0.00 in0.0 mm
09:25 PM -2.8°F-19.3°C -6.4°F-21.3°C 84% 13.0 mph N20.9 kmh N 22.0 mph35.4 kmh 30.25 in1024.4 mb 0.00 in0.0 mm 0.00 in0.0 mm 0.00 in0.0 mm
09:30 PM -2.6°F-19.2°C -6.2°F-21.2°C 84% 12.0 mph N19.3 kmh N 14.0 mph22.5 kmh 30.24 in1024.0 mb 0.00 in0.0 mm 0.00 in0.0 mm 0.00 in0.0 mm
09:35 PM -2.3°F-19.1°C -5.9°F-21.1°C 84% 14.0 mph N22.5 kmh N 20.0 mph32.2 kmh 30.23 in1023.7 mb 0.00 in0.0 mm 0.00 in0.0 mm 0.00 in0.0 mm
09:40 PM -2.3°F-19.1°C -5.9°F-21.1°C 84% 14.0 mph N22.5 kmh N 20.0 mph32.2 kmh 30.23 in1023.7 mb 0.00 in0.0 mm 0.00 in0.0 mm 0.00 in0.0 mm
09:45 PM -2.0°F-18.9°C -5.6°F-20.9°C 84% 11.0 mph N17.7 kmh N 15.0 mph24.1 kmh 30.22 in1023.4 mb 0.00 in0.0 mm 0.00 in0.0 mm 0.00 in0.0 mm
09:50 PM -1.9°F-18.8°C -5.8°F-21.0°C 83% 10.0 mph N16.1 kmh N 19.0 mph30.6 kmh 30.22 in1023.4 mb 0.00 in0.0 mm 0.00 in0.0 mm 0.00 in0.0 mm
09:55 PM -1.8°F-18.8°C -5.7°F-20.9°C 83% 13.0 mph N20.9 kmh N 19.0 mph30.6 kmh 30.22 in1023.4 mb 0.00 in0.0 mm 0.00 in0.0 mm 0.00 in0.0 mm
10:00 PM -2.0°F-18.9°C -5.9°F-21.1°C 83% 9.0 mph N14.5 kmh N 17.0 mph27.4 kmh 30.21 in1023.0 mb 0.00 in0.0 mm 0.00 in0.0 mm 0.00 in0.0 mm
10:05 PM -2.3°F-19.1°C -6.4°F-21.3°C 82% 12.0 mph N19.3 kmh N 26.0 mph41.8 kmh 30.20 in1022.7 mb 0.00 in0.0 mm 0.00 in0.0 mm 0.00 in0.0 mm
10:10 PM -2.5°F-19.2°C -6.4°F-21.3°C 83% 5.0 mph N8.0 kmh N 26.0 mph41.8 kmh 30.20 in1022.7 mb 0.00 in0.0 mm 0.00 in0.0 mm 0.00 in0.0 mm
10:15 PM -2.4°F-19.1°C -6.3°F-21.3°C 83% 11.0 mph N17.7 kmh N 11.0 mph17.7 kmh 30.19 in1022.4 mb 0.00 in0.0 mm 0.00 in0.0 mm 0.00 in0.0 mm
10:20 PM -2.2°F-19.0°C -6.1°F-21.2°C 83% 15.0 mph N24.1 kmh N 25.0 mph40.2 kmh 30.18 in1022.0 mb 0.00 in0.0 mm 0.00 in0.0 mm 0.00 in0.0 mm
10:25 PM -2.1°F-18.9°C -6.0°F-21.1°C 83% 14.0 mph N22.5 kmh N 25.0 mph40.2 kmh 30.17 in1021.7 mb 0.00 in0.0 mm 0.00 in0.0 mm 0.00 in0.0 mm
10:30 PM -2.0°F-18.9°C -5.9°F-21.1°C 83% 12.0 mph N19.3 kmh N 19.0 mph30.6 kmh 30.17 in1021.7 mb 0.00 in0.0 mm 0.00 in0.0 mm 0.00 in0.0 mm
10:35 PM -2.1°F-18.9°C -6.0°F-21.1°C 83% 9.0 mph N14.5 kmh N 28.0 mph45.1 kmh 30.17 in1021.7 mb 0.00 in0.0 mm 0.00 in0.0 mm 0.00 in0.0 mm
10:40 PM -2.3°F-19.1°C -6.4°F-21.3°C 82% 8.0 mph N12.9 kmh N 28.0 mph45.1 kmh 30.17 in1021.7 mb 0.00 in0.0 mm 0.00 in0.0 mm 0.00 in0.0 mm
10:45 PM -2.5°F-19.2°C -6.6°F-21.4°C 82% 14.0 mph N22.5 kmh N 15.0 mph24.1 kmh 30.17 in1021.7 mb 0.00 in0.0 mm 0.00 in0.0 mm 0.00 in0.0 mm
10:50 PM -2.5°F-19.2°C -6.6°F-21.4°C 82% 20.0 mph N32.2 kmh N 20.0 mph32.2 kmh 30.17 in1021.7 mb 0.00 in0.0 mm 0.00 in0.0 mm 0.00 in0.0 mm
10:55 PM -2.4°F-19.1°C -6.5°F-21.4°C 82% 8.0 mph N12.9 kmh N 20.0 mph32.2 kmh 30.17 in1021.7 mb 0.00 in0.0 mm 0.00 in0.0 mm 0.00 in0.0 mm
11:00 PM -2.3°F-19.1°C -6.4°F-21.3°C 82% 11.0 mph N17.7 kmh N 18.0 mph29.0 kmh 30.16 in1021.3 mb 0.00 in0.0 mm 0.00 in0.0 mm 0.00 in0.0 mm
11:05 PM -2.5°F-19.2°C -6.6°F-21.4°C 82% 10.0 mph N16.1 kmh N 26.0 mph41.8 kmh 30.15 in1021.0 mb 0.00 in0.0 mm 0.00 in0.0 mm 0.00 in0.0 mm
11:10 PM -2.6°F-19.2°C -7.0°F-21.7°C 81% 22.0 mph N35.4 kmh N 26.0 mph41.8 kmh 30.15 in1021.0 mb 0.00 in0.0 mm 0.00 in0.0 mm 0.00 in0.0 mm
11:15 PM -2.5°F-19.2°C -6.9°F-21.6°C 81% 16.0 mph N25.7 kmh N 18.0 mph29.0 kmh 30.14 in1020.7 mb 0.00 in0.0 mm 0.00 in0.0 mm 0.00 in0.0 mm
11:20 PM -2.4°F-19.1°C -6.5°F-21.4°C 82% 14.0 mph N22.5 kmh N 22.0 mph35.4 kmh 30.14 in1020.7 mb 0.00 in0.0 mm 0.00 in0.0 mm 0.00 in0.0 mm
11:25 PM -2.4°F-19.1°C -6.5°F-21.4°C 82% 14.0 mph N22.5 kmh N 24.0 mph38.6 kmh 30.14 in1020.7 mb 0.00 in0.0 mm 0.00 in0.0 mm 0.00 in0.0 mm
11:30 PM -2.2°F-19.0°C -6.3°F-21.3°C 82% 8.0 mph N12.9 kmh N 13.0 mph20.9 kmh 30.13 in1020.3 mb 0.00 in0.0 mm 0.00 in0.0 mm 0.00 in0.0 mm
11:35 PM -2.1°F-18.9°C -6.2°F-21.2°C 82% 18.0 mph N29.0 kmh N 18.0 mph29.0 kmh 30.13 in1020.3 mb 0.00 in0.0 mm 0.00 in0.0 mm 0.00 in0.0 mm
11:40 PM -2.0°F-18.9°C -6.4°F-21.3°C 81% 3.0 mph N4.8 kmh N 22.0 mph35.4 kmh 30.12 in1020.0 mb 0.00 in0.0 mm 0.00 in0.0 mm 0.00 in0.0 mm
11:45 PM -1.9°F-18.8°C -6.0°F-21.1°C 82% 10.0 mph N16.1 kmh N 15.0 mph24.1 kmh 30.12 in1020.0 mb 0.00 in0.0 mm 0.00 in0.0 mm 0.00 in0.0 mm
11:50 PM -1.8°F-18.8°C -5.9°F-21.1°C 82% 9.0 mph N14.5 kmh N 15.0 mph24.1 kmh 30.10 in1019.3 mb 0.00 in0.0 mm 0.00 in0.0 mm 0.00 in0.0 mm
11:55 PM -1.6°F-18.7°C -5.7°F-20.9°C 82% 12.0 mph N19.3 kmh N 20.0 mph32.2 kmh 30.10 in1019.3 mb 0.00 in0.0 mm 0.00 in0.0 mm 0.00 in0.0 mm